Time;durP1;ratioP1;P1;durP2;ratioP2;P2;SDS_P1;SDS_P2;PMS_P1;PMS_P2;Temp;Humidity;BMP_temperature;BMP_pressure;BME280_temperature;BME280_humidity;BME280_pressure;Samples;Min_cycle;Max_cycle;Signal;HPM_P1;HPM_P2
2021/10/25 00:02:09;;;;;;;11.43;7.00;;;7.20;99.90;;;;;;5112352;28;20458;-46
2021/10/25 00:04:36;;;;;;;7.13;6.07;;;6.80;99.90;;;;;;5112482;28;20437;-45
2021/10/25 00:07:03;;;;;;;9.23;5.93;;;7.20;99.90;;;;;;5112460;28;20445;-46
2021/10/25 00:09:30;;;;;;;8.97;5.40;;;7.20;99.90;;;;;;5112413;28;20417;-46
2021/10/25 00:11:57;;;;;;;14.40;5.77;;;6.80;99.90;;;;;;5112093;28;20669;-46
2021/10/25 00:14:24;;;;;;;11.53;6.70;;;7.20;99.90;;;;;;5114552;28;20971;-46
2021/10/25 00:16:52;;;;;;;8.00;6.27;;;6.70;99.90;;;;;;5114491;28;20460;-45
2021/10/25 00:19:19;;;;;;;11.50;6.73;;;7.00;99.90;;;;;;5112299;28;20409;-45
2021/10/25 00:21:46;;;;;;;8.83;6.00;;;6.50;99.90;;;;;;5112088;28;20490;-44
2021/10/25 00:24:14;;;;;;;9.80;6.57;;;6.90;99.90;;;;;;5112296;28;20405;-46
2021/10/25 00:26:41;;;;;;;10.27;7.20;;;6.70;99.90;;;;;;5112119;28;20441;-45
2021/10/25 00:29:09;;;;;;;11.07;5.50;;;6.90;99.90;;;;;;5112432;28;20438;-44
2021/10/25 00:31:36;;;;;;;9.27;6.30;;;6.70;99.90;;;;;;5110501;28;20479;-45
2021/10/25 00:34:04;;;;;;;9.30;6.80;;;6.60;99.90;;;;;;5112203;28;20888;-46
2021/10/25 00:36:32;;;;;;;10.27;6.17;;;7.10;99.90;;;;;;5112194;28;20415;-44
2021/10/25 00:38:59;;;;;;;9.90;5.87;;;7.00;99.90;;;;;;5111752;28;20404;-44
2021/10/25 00:41:25;;;;;;;10.70;7.00;;;6.90;99.90;;;;;;5111068;28;20471;-45
2021/10/25 00:43:53;;;;;;;8.17;6.27;;;6.90;99.90;;;;;;5112364;28;20516;-45
2021/10/25 00:46:19;;;;;;;11.23;6.37;;;7.40;99.90;;;;;;5113596;28;20820;-45
2021/10/25 00:48:46;;;;;;;9.00;5.43;;;7.40;99.90;;;;;;5113174;28;20422;-45
2021/10/25 00:51:14;;;;;;;8.67;5.73;;;7.00;99.90;;;;;;5111872;28;20447;-45
2021/10/25 00:53:42;;;;;;;13.40;6.90;;;7.20;99.90;;;;;;5113454;28;20410;-45
2021/10/25 00:56:09;;;;;;;6.83;5.40;;;6.90;99.90;;;;;;5116200;28;20777;-45
2021/10/25 00:58:37;;;;;;;7.80;5.70;;;7.00;99.90;;;;;;5115453;28;20436;-45
2021/10/25 01:01:05;;;;;;;16.37;7.00;;;6.90;99.90;;;;;;5114496;28;20424;-46
2021/10/25 01:03:31;;;;;;;7.60;5.37;;;6.90;99.90;;;;;;5114783;28;20448;-45
2021/10/25 01:05:58;;;;;;;11.73;6.37;;;6.90;99.90;;;;;;5115863;28;20449;-46
2021/10/25 01:08:29;;;;;;;8.90;6.20;;;6.90;99.90;;;;;;5115466;28;20473;-45
2021/10/25 01:10:56;;;;;;;7.67;5.40;;;6.80;99.90;;;;;;5115695;28;20451;-45
2021/10/25 01:13:23;;;;;;;10.63;5.57;;;7.00;99.90;;;;;;5115705;28;21003;-45
2021/10/25 01:15:49;;;;;;;10.73;6.40;;;6.80;99.90;;;;;;5114238;28;20547;-45
2021/10/25 01:18:16;;;;;;;8.93;5.90;;;6.50;99.90;;;;;;5114001;28;20466;-46
2021/10/25 01:20:46;;;;;;;9.57;7.00;;;6.90;99.90;;;;;;5114420;28;20423;-45
2021/10/25 01:23:13;;;;;;;12.37;7.27;;;6.40;99.90;;;;;;5115554;28;20445;-46
2021/10/25 01:25:39;;;;;;;15.20;5.87;;;6.80;99.90;;;;;;5115715;28;20443;-45
2021/10/25 01:28:07;;;;;;;12.10;5.80;;;7.00;99.90;;;;;;5115220;28;20938;-46
2021/10/25 01:30:33;;;;;;;15.73;6.50;;;6.60;99.90;;;;;;5117791;28;20446;-46
2021/10/25 01:33:00;;;;;;;9.30;6.00;;;6.20;99.90;;;;;;5118780;28;21005;-45
2021/10/25 01:35:27;;;;;;;8.63;6.37;;;6.90;99.90;;;;;;5114321;28;20429;-45
2021/10/25 01:37:54;;;;;;;10.43;6.13;;;6.30;99.90;;;;;;5113792;28;20441;-46
2021/10/25 01:40:21;;;;;;;9.77;5.83;;;6.90;99.90;;;;;;5114039;28;20517;-46
2021/10/25 01:42:48;;;;;;;13.83;6.90;;;6.90;99.90;;;;;;5113947;28;20442;-45
2021/10/25 01:45:16;;;;;;;8.33;6.60;;;6.60;99.90;;;;;;5113839;28;20424;-46
2021/10/25 01:47:42;;;;;;;10.53;6.60;;;6.70;99.90;;;;;;5113258;28;20448;-45
2021/10/25 01:50:10;;;;;;;10.83;6.03;;;6.20;99.90;;;;;;5113727;28;20492;-45
2021/10/25 01:52:38;;;;;;;9.17;6.30;;;6.60;99.90;;;;;;5113515;28;20459;-46
2021/10/25 01:55:08;;;;;;;10.93;7.03;;;6.50;99.90;;;;;;5113587;28;21010;-45
2021/10/25 01:57:35;;;;;;;11.53;6.13;;;6.50;99.90;;;;;;5113552;28;20990;-44
2021/10/25 02:00:02;;;;;;;9.50;6.03;;;6.60;99.90;;;;;;5113492;28;20553;-46
2021/10/25 02:02:41;;;;;;;9.53;6.33;;;6.60;99.90;;;;;;5115032;28;20454;-45
2021/10/25 02:05:22;;;;;;;10.53;5.47;;;6.60;99.90;;;;;;5112634;28;20452;-45
2021/10/25 02:07:49;;;;;;;10.07;6.10;;;6.70;99.90;;;;;;5113272;28;20449;-45
2021/10/25 02:10:20;;;;;;;8.13;5.47;;;6.50;99.90;;;;;;5113255;28;20833;-46
2021/10/25 02:12:46;;;;;;;8.93;5.53;;;5.90;99.90;;;;;;5114274;28;20843;-45
2021/10/25 02:15:13;;;;;;;10.55;6.40;;;6.10;99.90;;;;;;5113128;28;20518;-45
2021/10/25 02:17:39;;;;;;;11.30;6.53;;;6.70;99.90;;;;;;5114110;28;20688;-45
2021/10/25 02:20:07;;;;;;;10.97;6.97;;;6.40;99.90;;;;;;5113237;28;20452;-45
2021/10/25 02:22:34;;;;;;;7.23;6.40;;;6.40;99.90;;;;;;5114588;28;20423;-46
2021/10/25 02:25:01;;;;;;;7.67;5.60;;;6.10;99.90;;;;;;5113044;28;20533;-45
2021/10/25 02:27:29;;;;;;;7.87;5.87;;;6.70;99.90;;;;;;5112760;28;20433;-45
2021/10/25 02:29:56;;;;;;;9.27;6.20;;;6.50;99.90;;;;;;5112487;28;20453;-47
2021/10/25 02:32:23;;;;;;;7.50;6.27;;;6.40;99.90;;;;;;5112801;28;20482;-45
2021/10/25 02:34:50;;;;;;;7.67;6.43;;;6.30;99.90;;;;;;5113087;28;20767;-45
2021/10/25 02:37:19;;;;;;;10.73;6.73;;;6.60;99.90;;;;;;5113394;28;20460;-46
2021/10/25 02:39:47;;;;;;;7.85;6.07;;;6.40;99.90;;;;;;5112658;28;20477;-45
2021/10/25 02:42:14;;;;;;;10.23;5.93;;;6.30;99.90;;;;;;5113962;28;20214;-45
2021/10/25 02:44:44;;;;;;;13.70;6.07;;;6.50;99.90;;;;;;5112678;28;20470;-45
2021/10/25 02:47:15;;;;;;;9.33;6.23;;;6.30;99.90;;;;;;5112769;28;20410;-45
2021/10/25 02:49:43;;;;;;;11.88;6.72;;;6.10;99.90;;;;;;5117363;28;20419;-46
2021/10/25 02:52:10;;;;;;;9.65;6.32;;;6.30;99.90;;;;;;5114462;28;20230;-46
2021/10/25 02:54:39;;;;;;;9.53;6.47;;;6.40;99.90;;;;;;5112521;28;20293;-46
2021/10/25 02:57:06;;;;;;;11.03;5.87;;;6.20;99.90;;;;;;5112347;28;20439;-45
2021/10/25 02:59:36;;;;;;;8.17;5.87;;;6.30;99.90;;;;;;5112039;28;20426;-45
2021/10/25 03:02:07;;;;;;;10.30;6.27;;;5.90;99.90;;;;;;5112388;28;20446;-45
2021/10/25 03:04:34;;;;;;;9.33;6.60;;;6.40;99.90;;;;;;5112951;28;20500;-45
2021/10/25 03:07:03;;;;;;;9.90;5.87;;;6.20;99.90;;;;;;5113146;28;20418;-46
2021/10/25 03:09:35;;;;;;;15.03;7.50;;;6.20;99.90;;;;;;5112653;28;20460;-45
2021/10/25 03:12:06;;;;;;;13.15;6.55;;;6.30;99.90;;;;;;5114115;28;20548;-46
2021/10/25 03:14:33;;;;;;;10.63;6.10;;;6.30;99.90;;;;;;5113053;28;20203;-45
2021/10/25 03:17:04;;;;;;;9.13;6.60;;;6.20;99.90;;;;;;5114705;28;20423;-46
2021/10/25 03:19:38;;;;;;;14.73;7.43;;;6.30;99.90;;;;;;5112228;28;20461;-46
2021/10/25 03:22:05;;;;;;;10.63;7.10;;;6.30;99.90;;;;;;5111918;28;20494;-46
2021/10/25 03:24:36;;;;;;;8.63;6.17;;;6.30;99.90;;;;;;5111839;28;20840;-47
2021/10/25 03:27:03;;;;;;;9.50;6.83;;;5.90;99.90;;;;;;5111726;28;20483;-46
2021/10/25 03:29:30;;;;;;;10.17;6.63;;;6.30;99.90;;;;;;5111325;28;20430;-45
2021/10/25 03:32:00;;;;;;;8.90;6.33;;;6.30;99.90;;;;;;5111928;28;20535;-45
2021/10/25 03:34:29;;;;;;;13.23;6.47;;;6.10;99.90;;;;;;5111739;28;20437;-45
2021/10/25 03:36:58;;;;;;;14.23;7.07;;;6.30;99.90;;;;;;5111525;28;20444;-45
2021/10/25 03:39:30;;;;;;;11.50;6.43;;;5.70;99.90;;;;;;5111198;28;20776;-45
2021/10/25 03:41:57;;;;;;;10.23;6.40;;;6.10;99.90;;;;;;5111551;28;20463;-45
2021/10/25 03:44:27;;;;;;;12.20;6.40;;;6.20;99.90;;;;;;5111304;28;20431;-45
2021/10/25 03:46:58;;;;;;;12.50;6.80;;;6.30;99.90;;;;;;5111801;28;20458;-45
2021/10/25 03:49:31;;;;;;;11.40;6.23;;;5.80;99.90;;;;;;5111029;28;20422;-45
2021/10/25 03:52:25;;;;;;;7.63;5.40;;;6.20;99.90;;;;;;5112242;28;20472;-45
2021/10/25 03:54:59;;;;;;;11.43;6.37;;;6.10;99.90;;;;;;5112608;28;20715;-45
2021/10/25 03:57:49;;;;;;;11.70;6.80;;;6.20;99.90;;;;;;5111372;28;20444;-45
2021/10/25 04:00:33;;;;;;;10.05;5.85;;;6.20;99.90;;;;;;5112604;28;20471;-45
2021/10/25 04:26:02;;;;;;;16.65;7.90;;;6.00;99.90;;;;;;5050332;28;20200;-51
2021/10/25 04:28:31;;;;;;;9.47;6.40;;;5.70;99.90;;;;;;5050923;28;20754;-51
2021/10/25 04:31:00;;;;;;;8.15;6.53;;;5.90;99.90;;;;;;5054730;28;20450;-50
2021/10/25 04:33:34;;;;;;;11.70;7.70;;;5.70;99.90;;;;;;5053991;28;20289;-50
2021/10/25 04:36:06;;;;;;;11.00;7.47;;;6.00;99.90;;;;;;5053826;28;20453;-51
2021/10/25 04:38:48;;;;;;;13.80;8.70;;;6.00;99.90;;;;;;5053540;28;20534;-51
2021/10/25 04:41:16;;;;;;;9.73;6.60;;;6.10;99.90;;;;;;5054128;28;20804;-50
2021/10/25 04:43:45;;;;;;;10.33;7.97;;;5.90;99.90;;;;;;5054266;28;20204;-50
2021/10/25 04:46:12;;;;;;;10.50;7.07;;;6.10;99.90;;;;;;5053438;28;20528;-50
2021/10/25 04:48:39;;;;;;;7.88;6.60;;;6.00;99.90;;;;;;5053403;28;20208;-50
2021/10/25 04:51:08;;;;;;;11.68;7.70;;;6.00;99.90;;;;;;5053107;28;20672;-51
2021/10/25 04:53:53;;;;;;;11.90;7.70;;;6.10;99.90;;;;;;5053504;28;20227;-51
2021/10/25 04:56:25;;;;;;;11.60;7.13;;;6.00;99.90;;;;;;5053331;28;20230;-50
2021/10/25 04:58:53;;;;;;;9.07;6.93;;;5.90;99.90;;;;;;5053439;28;20232;-51
2021/10/25 05:01:20;;;;;;;12.80;8.27;;;6.00;99.90;;;;;;5053112;28;20236;-50
2021/10/25 05:03:48;;;;;;;12.60;8.73;;;5.80;99.90;;;;;;5053010;28;20486;-51
2021/10/25 05:06:18;;;;;;;10.50;7.20;;;5.90;99.90;;;;;;5053055;28;20228;-50
2021/10/25 05:08:47;;;;;;;10.25;6.68;;;6.10;99.90;;;;;;5052712;28;20446;-50
2021/10/25 05:11:16;;;;;;;12.65;7.57;;;5.80;99.90;;;;;;5053037;28;20208;-51
2021/10/25 05:13:44;;;;;;;14.65;6.85;;;5.90;99.90;;;;;;5052714;28;20236;-51
2021/10/25 05:16:12;;;;;;;16.60;7.65;;;5.30;99.90;;;;;;5052645;28;20318;-50
2021/10/25 05:18:42;;;;;;;13.50;7.43;;;5.80;99.90;;;;;;5052690;28;20571;-50
2021/10/25 05:21:08;;;;;;;11.18;7.20;;;5.70;99.90;;;;;;5053997;28;20690;-51
2021/10/25 05:23:36;;;;;;;11.68;8.15;;;6.00;99.90;;;;;;5052464;28;20247;-51
2021/10/25 05:26:05;;;;;;;11.48;7.28;;;5.70;99.90;;;;;;5052249;28;20227;-51
2021/10/25 05:28:32;;;;;;;13.63;6.57;;;5.90;99.90;;;;;;5053081;28;20202;-51
2021/10/25 05:31:01;;;;;;;15.33;7.77;;;5.90;99.90;;;;;;5052165;28;20207;-58
2021/10/25 05:33:39;;;;;;;11.43;6.80;;;5.80;99.90;;;;;;5051197;28;20514;-51
2021/10/25 05:36:06;;;;;;;8.85;7.88;;;6.00;99.90;;;;;;5052476;28;20223;-50
2021/10/25 05:38:34;;;;;;;10.63;8.25;;;5.70;99.90;;;;;;5050743;28;20270;-53
2021/10/25 05:41:04;;;;;;;11.13;8.00;;;5.70;99.90;;;;;;5051918;28;20341;-52
2021/10/25 05:43:31;;;;;;;12.60;7.73;;;5.90;99.90;;;;;;5051265;28;20311;-51
2021/10/25 05:46:02;;;;;;;12.65;6.95;;;5.90;99.90;;;;;;5052802;28;20474;-53
2021/10/25 05:48:29;;;;;;;11.02;7.45;;;6.00;99.90;;;;;;5051878;28;20200;-52
2021/10/25 05:50:59;;;;;;;12.00;7.17;;;5.80;99.90;;;;;;5050616;28;20249;-51
2021/10/25 05:53:26;;;;;;;10.57;7.20;;;5.70;99.90;;;;;;5051310;28;20456;-51
2021/10/25 05:55:57;;;;;;;10.55;7.85;;;5.50;99.90;;;;;;5051943;28;20486;-51
2021/10/25 05:58:26;;;;;;;15.00;8.80;;;5.60;99.90;;;;;;5035143;28;20250;-51
2021/10/25 06:00:57;;;;;;;16.80;8.02;;;6.00;99.90;;;;;;5051870;28;20458;-52
2021/10/25 06:03:59;;;;;;;10.90;8.45;;;6.00;99.90;;;;;;5048607;28;20200;-51
2021/10/25 06:06:26;;;;;;;19.75;9.60;;;5.30;99.90;;;;;;5052256;28;20733;-51
2021/10/25 06:08:53;;;;;;;14.23;7.95;;;5.70;99.90;;;;;;5050880;28;20551;-52
2021/10/25 06:11:21;;;;;;;15.65;7.88;;;5.70;99.90;;;;;;5051521;28;20721;-51
2021/10/25 06:13:48;;;;;;;12.70;7.20;;;5.90;99.90;;;;;;5053386;28;20244;-51
2021/10/25 06:16:18;;;;;;;19.77;9.18;;;6.00;99.90;;;;;;5051373;28;20287;-52
2021/10/25 06:18:50;;;;;;;19.48;10.07;;;5.80;99.90;;;;;;5051401;28;20199;-51
2021/10/25 06:21:19;;;;;;;17.55;8.93;;;5.80;99.90;;;;;;5051135;28;20204;-51
2021/10/25 06:23:47;;;;;;;14.13;7.15;;;5.90;99.90;;;;;;5051560;28;20224;-51
2021/10/25 06:26:24;;;;;;;14.40;8.07;;;6.00;99.90;;;;;;5051745;28;20196;-51
2021/10/25 06:28:51;;;;;;;11.55;8.45;;;5.90;99.90;;;;;;5050987;28;20691;-50
2021/10/25 06:31:19;;;;;;;14.40;8.00;;;6.10;99.90;;;;;;5051146;28;20405;-51
2021/10/25 06:34:02;;;;;;;13.25;7.47;;;6.20;99.90;;;;;;5053262;28;20220;-51
2021/10/25 06:36:34;;;;;;;13.05;7.75;;;6.10;99.90;;;;;;5052939;28;20226;-51
2021/10/25 06:39:11;;;;;;;10.20;7.90;;;6.10;99.90;;;;;;5051104;28;20200;-50
2021/10/25 06:41:44;;;;;;;16.50;7.57;;;6.00;99.90;;;;;;5051530;28;20449;-51
2021/10/25 06:44:15;;;;;;;22.35;7.82;;;6.20;99.90;;;;;;5051154;28;20645;-51
2021/10/25 06:46:44;;;;;;;10.60;7.63;;;5.70;99.90;;;;;;5051084;28;20200;-51
2021/10/25 06:49:11;;;;;;;10.53;7.13;;;6.20;99.90;;;;;;5050262;28;20200;-52
2021/10/25 06:51:40;;;;;;;13.73;8.23;;;5.70;99.90;;;;;;5050178;28;20589;-51
2021/10/25 06:54:07;;;;;;;11.75;8.02;;;6.10;99.90;;;;;;5050802;28;20450;-51
2021/10/25 06:56:35;;;;;;;11.52;8.15;;;6.30;99.90;;;;;;5050690;28;20338;-51
2021/10/25 06:59:02;;;;;;;13.87;7.80;;;6.20;99.90;;;;;;5051961;28;20696;-51
2021/10/25 07:01:32;;;;;;;15.00;8.75;;;6.10;99.90;;;;;;5050279;28;20539;-52
2021/10/25 07:03:58;;;;;;;11.30;8.60;;;6.20;99.90;;;;;;5051260;28;20215;-51
2021/10/25 07:06:33;;;;;;;9.23;7.45;;;6.20;99.90;;;;;;5050504;28;20507;-51
2021/10/25 07:09:03;;;;;;;13.03;8.60;;;6.40;99.90;;;;;;5051315;28;20227;-52
2021/10/25 07:11:30;;;;;;;15.17;8.43;;;6.40;99.90;;;;;;5050414;28;20485;-51
2021/10/25 07:13:58;;;;;;;10.03;7.77;;;6.20;99.90;;;;;;5050362;28;20482;-51
2021/10/25 07:16:30;;;;;;;10.80;8.17;;;6.60;99.90;;;;;;5050229;28;20435;-52
2021/10/25 08:04:47;;;;;;;8.70;6.53;;;7.10;99.90;;;;;;5050713;28;20424;-52
2021/10/25 08:07:22;;;;;;;13.00;7.07;;;7.30;99.90;;;;;;5049918;28;20452;-52
2021/10/25 08:10:12;;;;;;;9.83;6.73;;;7.30;99.90;;;;;;5051885;28;20796;-52
2021/10/25 08:12:46;;;;;;;9.93;7.00;;;7.60;99.90;;;;;;5050104;28;20495;-51
2021/10/25 08:15:21;;;;;;;13.93;7.70;;;7.30;99.90;;;;;;5049783;28;20440;-51
2021/10/25 08:17:53;;;;;;;12.27;7.40;;;7.30;99.90;;;;;;5050027;28;20456;-51
2021/10/25 08:20:20;;;;;;;10.63;6.97;;;7.60;99.90;;;;;;5049791;28;20458;-51
2021/10/25 08:22:47;;;;;;;16.27;7.00;;;7.80;99.90;;;;;;5049965;28;20818;-52
2021/10/25 08:25:15;;;;;;;12.33;6.10;;;7.70;99.90;;;;;;5049545;28;20479;-52
2021/10/25 08:27:55;;;;;;;15.13;7.37;;;7.90;99.90;;;;;;5049434;28;20965;-51
2021/10/25 08:30:23;;;;;;;13.10;6.40;;;7.80;99.90;;;;;;5049676;28;20419;-51
2021/10/25 08:33:08;;;;;;;13.93;6.97;;;7.80;99.90;;;;;;5049639;28;21066;-51
2021/10/25 08:35:49;;;;;;;9.63;6.43;;;8.20;99.90;;;;;;5051030;28;20491;-52
2021/10/25 08:41:21;;;;;;;11.60;7.17;;;8.10;99.90;;;;;;5049948;28;20463;-51
2021/10/25 08:43:50;;;;;;;9.17;6.60;;;7.80;99.90;;;;;;5049554;28;20416;-51
2021/10/25 08:46:20;;;;;;;13.87;6.43;;;8.10;99.90;;;;;;5049437;28;20560;-51
2021/10/25 08:48:48;;;;;;;10.10;6.00;;;8.20;99.90;;;;;;5049519;28;20428;-51
2021/10/25 08:51:16;;;;;;;7.70;6.33;;;8.60;99.90;;;;;;5049956;28;20457;-52
2021/10/25 08:53:43;;;;;;;10.27;6.07;;;8.30;99.90;;;;;;5051184;28;20481;-51
2021/10/25 08:56:17;;;;;;;12.10;6.97;;;8.40;99.90;;;;;;5049379;28;20436;-52
2021/10/25 08:58:54;;;;;;;8.70;6.37;;;8.40;99.90;;;;;;5049315;28;20442;-52
2021/10/25 09:01:27;;;;;;;13.20;6.57;;;8.30;99.90;;;;;;5049830;28;20460;-51
2021/10/25 09:04:16;;;;;;;10.67;7.07;;;8.70;99.90;;;;;;5050817;28;20450;-51
2021/10/25 09:06:54;;;;;;;10.73;6.83;;;8.40;99.90;;;;;;5049508;28;20446;-51
2021/10/25 09:09:25;;;;;;;11.13;6.40;;;8.90;99.90;;;;;;5048889;28;20523;-52
2021/10/25 09:12:00;;;;;;;10.03;5.70;;;8.70;99.90;;;;;;5049325;28;20517;-51
2021/10/25 09:14:28;;;;;;;10.60;6.37;;;8.90;99.90;;;;;;5050195;28;20477;-51
2021/10/25 09:17:04;;;;;;;13.40;6.20;;;9.40;99.90;;;;;;5052990;28;20446;-52
2021/10/25 09:19:41;;;;;;;11.73;6.63;;;9.00;99.90;;;;;;5052708;28;20601;-51
2021/10/25 09:22:10;;;;;;;17.47;7.33;;;9.20;99.90;;;;;;5052803;28;20513;-51
2021/10/25 09:24:38;;;;;;;15.10;7.07;;;8.80;99.90;;;;;;5052763;28;20973;-51
2021/10/25 09:27:09;;;;;;;10.07;6.63;;;9.40;99.90;;;;;;5052254;28;20493;-51
2021/10/25 09:29:38;;;;;;;14.83;6.60;;;9.40;99.90;;;;;;5052321;28;20488;-52
2021/10/25 09:32:10;;;;;;;11.70;6.90;;;9.50;99.90;;;;;;5053840;28;20457;-52
2021/10/25 09:34:48;;;;;;;11.03;6.30;;;9.40;99.90;;;;;;5052624;28;20512;-52
2021/10/25 09:37:45;;;;;;;9.10;6.00;;;9.60;99.90;;;;;;5051039;28;20542;-52
2021/10/25 09:40:21;;;;;;;9.07;5.47;;;9.60;99.90;;;;;;5052854;28;20512;-51
2021/10/25 09:45:44;;;;;;;9.53;6.10;;;9.70;99.90;;;;;;5039651;28;20434;-52
2021/10/25 09:51:21;;;;;;;10.20;6.30;;;9.90;99.90;;;;;;5046005;28;20446;-51
2021/10/25 09:53:56;;;;;;;10.80;5.70;;;9.90;99.90;;;;;;5051839;28;20457;-51
2021/10/25 09:56:30;;;;;;;9.60;5.50;;;10.10;99.90;;;;;;5052464;28;20454;-50
2021/10/25 09:59:46;;;;;;;9.17;6.50;;;10.30;99.90;;;;;;5052895;28;20445;-51
2021/10/25 10:02:15;;;;;;;8.27;5.63;;;9.90;99.90;;;;;;5079293;23;20898;-49
2021/10/25 10:04:46;;;;;;;10.47;6.97;;;10.10;99.90;;;;;;5089067;28;20872;-48
2021/10/25 10:07:24;;;;;;;7.23;5.40;;;10.30;99.90;;;;;;5072101;28;20434;-48
2021/10/25 10:09:59;;;;;;;13.00;7.03;;;9.80;99.90;;;;;;5071485;28;20419;-49
2021/10/25 10:12:27;;;;;;;11.43;5.90;;;10.10;99.90;;;;;;5070945;28;20551;-49
2021/10/25 10:14:58;;;;;;;11.97;6.40;;;10.10;99.90;;;;;;5071634;28;20489;-50
2021/10/25 10:17:30;;;;;;;7.50;6.10;;;10.10;99.90;;;;;;5071888;28;20458;-49
2021/10/25 10:20:04;;;;;;;7.33;5.60;;;9.80;99.90;;;;;;5071826;28;20435;-49
2021/10/25 10:22:49;;;;;;;19.03;6.00;;;10.20;99.90;;;;;;5072002;28;20515;-49
2021/10/25 10:25:29;;;;;;;10.40;6.43;;;10.10;99.90;;;;;;5071240;28;20530;-49
2021/10/25 10:28:01;;;;;;;11.13;5.43;;;10.20;99.90;;;;;;5070677;28;20538;-48
2021/10/25 10:30:29;;;;;;;11.87;7.33;;;10.20;99.90;;;;;;5071753;28;20829;-50
2021/10/25 10:33:07;;;;;;;8.50;5.60;;;10.10;99.90;;;;;;5071226;28;20440;-48
2021/10/25 10:35:48;;;;;;;13.00;6.13;;;10.30;99.90;;;;;;5071966;28;20457;-48
2021/10/25 10:38:15;;;;;;;13.33;8.07;;;10.40;99.90;;;;;;5072127;28;20476;-48
2021/10/25 10:41:08;;;;;;;17.20;6.43;;;10.70;99.90;;;;;;5069728;28;20511;-48
2021/10/25 10:43:35;;;;;;;9.53;6.33;;;10.00;99.90;;;;;;5072875;28;20471;-49
2021/10/25 10:46:12;;;;;;;12.93;7.67;;;10.50;99.90;;;;;;5071725;28;21004;-50
2021/10/25 10:48:40;;;;;;;8.50;6.10;;;10.50;99.90;;;;;;5071177;28;20481;-49
2021/10/25 10:51:11;;;;;;;10.47;7.20;;;10.70;99.90;;;;;;5071983;28;20429;-49
2021/10/25 10:53:45;;;;;;;13.30;6.93;;;10.50;99.90;;;;;;5071715;28;20452;-49
2021/10/25 10:56:21;;;;;;;10.27;6.47;;;10.40;99.90;;;;;;5072703;28;20444;-49
2021/10/25 10:58:51;;;;;;;15.03;7.47;;;10.70;99.90;;;;;;5072463;28;20408;-48
2021/10/25 11:01:18;;;;;;;13.97;6.40;;;10.60;99.90;;;;;;5071316;28;20802;-48
2021/10/25 11:03:45;;;;;;;9.20;6.43;;;10.70;99.90;;;;;;5072121;28;20474;-50
2021/10/25 11:06:17;;;;;;;12.23;6.93;;;10.60;99.90;;;;;;5071113;28;20477;-49
2021/10/25 11:08:48;;;;;;;12.47;5.93;;;10.70;99.90;;;;;;5070824;28;20444;-48
2021/10/25 11:11:18;;;;;;;8.90;7.20;;;10.70;99.90;;;;;;5071210;28;20559;-49
2021/10/25 11:13:55;;;;;;;13.07;6.00;;;10.40;99.90;;;;;;5072294;28;20692;-49
2021/10/25 11:16:28;;;;;;;7.40;6.47;;;10.70;99.90;;;;;;5073128;28;20524;-50
2021/10/25 11:18:57;;;;;;;7.20;5.87;;;11.00;99.90;;;;;;5070975;28;20482;-49
2021/10/25 11:21:29;;;;;;;11.60;6.83;;;10.80;99.90;;;;;;5073114;28;20500;-48
2021/10/25 11:23:59;;;;;;;14.20;7.80;;;10.90;99.90;;;;;;5072215;28;20598;-49
2021/10/25 11:26:30;;;;;;;10.07;7.30;;;11.10;99.90;;;;;;5070512;28;20445;-49
2021/10/25 11:29:04;;;;;;;13.10;7.47;;;11.20;99.90;;;;;;5071528;28;20512;-49
2021/10/25 11:31:34;;;;;;;11.10;6.60;;;11.00;99.90;;;;;;5070442;28;20449;-49
2021/10/25 11:34:03;;;;;;;11.13;7.50;;;11.10;99.90;;;;;;5071848;28;20535;-50
2021/10/25 11:36:33;;;;;;;14.67;8.90;;;11.20;99.90;;;;;;5070764;28;20492;-50
2021/10/25 11:39:02;;;;;;;12.80;7.40;;;11.20;99.90;;;;;;5070323;28;20446;-49
2021/10/25 11:41:29;;;;;;;20.57;7.80;;;11.30;99.90;;;;;;5070619;28;20844;-50
2021/10/25 11:43:56;;;;;;;12.30;7.27;;;11.40;99.90;;;;;;5071918;28;20882;-49
2021/10/25 11:46:24;;;;;;;9.57;7.13;;;11.30;99.90;;;;;;5071670;28;20438;-49
2021/10/25 11:48:56;;;;;;;14.80;8.57;;;11.50;99.90;;;;;;5073754;28;20457;-50
2021/10/25 11:51:25;;;;;;;10.40;7.40;;;11.70;99.90;;;;;;5072971;28;20480;-49
2021/10/25 11:54:00;;;;;;;9.73;8.13;;;11.70;99.90;;;;;;5070370;28;20905;-49
2021/10/25 11:56:29;;;;;;;21.33;7.90;;;11.90;99.90;;;;;;5071150;28;20430;-48
2021/10/25 11:58:57;;;;;;;8.90;6.33;;;11.80;99.80;;;;;;5070883;28;20427;-50
2021/10/25 12:01:26;;;;;;;8.67;6.70;;;11.80;99.80;;;;;;5071229;28;20460;-50
2021/10/25 12:04:05;;;;;;;11.40;7.10;;;11.60;99.70;;;;;;5069964;28;20564;-49
2021/10/25 12:06:33;;;;;;;12.53;7.30;;;11.90;99.80;;;;;;5069867;28;20487;-52
2021/10/25 12:09:03;;;;;;;7.83;6.93;;;12.00;99.80;;;;;;5071173;28;20508;-50
2021/10/25 12:11:41;;;;;;;12.00;6.87;;;12.10;99.90;;;;;;5071279;28;20926;-50
2021/10/25 12:14:07;;;;;;;9.53;6.53;;;12.00;99.70;;;;;;5073004;28;20463;-49
2021/10/25 12:16:34;;;;;;;9.13;6.60;;;12.00;99.90;;;;;;5069438;28;20448;-48
2021/10/25 12:19:02;;;;;;;14.20;7.43;;;12.10;99.60;;;;;;5071339;28;20485;-49
2021/10/25 12:21:33;;;;;;;10.03;7.43;;;12.10;99.40;;;;;;5070962;28;20934;-49
2021/10/25 12:24:09;;;;;;;10.50;7.30;;;12.20;99.40;;;;;;5071015;28;20446;-48
2021/10/25 12:26:36;;;;;;;13.70;7.20;;;12.30;99.40;;;;;;5069603;28;20480;-49
2021/10/25 12:29:13;;;;;;;11.60;8.70;;;12.20;99.30;;;;;;5070854;28;20438;-49
2021/10/25 12:31:40;;;;;;;12.13;8.17;;;12.30;99.20;;;;;;5070674;28;20442;-48
2021/10/25 12:34:07;;;;;;;11.33;7.10;;;12.30;99.20;;;;;;5071017;28;20861;-50
2021/10/25 12:36:37;;;;;;;12.20;7.43;;;12.20;99.10;;;;;;5070535;28;20436;-48
2021/10/25 12:39:09;;;;;;;8.10;7.10;;;12.00;99.00;;;;;;5070544;28;20534;-49
2021/10/25 12:41:47;;;;;;;11.63;6.67;;;12.20;99.00;;;;;;5071133;28;20927;-50
2021/10/25 12:44:25;;;;;;;11.27;7.80;;;12.40;99.20;;;;;;5070792;28;20428;-50
2021/10/25 12:47:08;;;;;;;9.57;7.30;;;12.30;99.00;;;;;;5071746;28;20438;-49
2021/10/25 12:49:35;;;;;;;9.73;7.20;;;12.30;99.10;;;;;;5071952;28;20475;-49
2021/10/25 12:52:07;;;;;;;9.57;6.43;;;12.50;99.20;;;;;;5075053;28;20438;-49
2021/10/25 12:54:38;;;;;;;10.30;7.10;;;12.30;99.10;;;;;;5074605;28;20481;-50
2021/10/25 12:57:16;;;;;;;12.60;6.93;;;12.30;99.10;;;;;;5074333;28;20443;-50
2021/10/25 12:59:43;;;;;;;16.87;12.23;;;12.40;99.00;;;;;;5073150;28;20811;-49
2021/10/25 13:02:10;;;;;;;12.10;8.70;;;12.40;99.00;;;;;;5072772;28;20483;-50
2021/10/25 13:04:38;;;;;;;10.87;7.67;;;12.50;99.10;;;;;;5074738;28;20428;-49
2021/10/25 13:07:13;;;;;;;8.80;7.17;;;12.40;99.00;;;;;;5074300;28;20431;-49
2021/10/25 13:09:49;;;;;;;12.43;7.87;;;12.50;98.90;;;;;;5072944;28;20940;-49
2021/10/25 13:12:15;;;;;;;12.87;7.70;;;12.90;99.10;;;;;;5073398;28;20440;-49
2021/10/25 13:14:42;;;;;;;11.50;7.70;;;12.40;98.90;;;;;;5074521;28;20548;-50
2021/10/25 13:17:10;;;;;;;16.23;8.60;;;12.50;99.00;;;;;;5072943;28;20469;-49
2021/10/25 13:19:37;;;;;;;11.33;9.00;;;12.40;99.00;;;;;;5073175;28;20998;-48
2021/10/25 13:22:04;;;;;;;9.43;8.43;;;12.40;99.20;;;;;;5074268;28;20837;-49
2021/10/25 13:24:31;;;;;;;15.00;9.10;;;12.30;99.10;;;;;;5072065;28;20520;-49
2021/10/25 13:26:59;;;;;;;12.80;8.77;;;12.40;99.20;;;;;;5073501;28;20907;-50
2021/10/25 13:29:26;;;;;;;16.57;10.10;;;12.30;99.30;;;;;;5073699;28;20413;-48
2021/10/25 13:31:53;;;;;;;12.70;7.73;;;12.30;99.30;;;;;;5075817;28;20450;-49
2021/10/25 13:34:21;;;;;;;14.23;10.30;;;12.20;99.30;;;;;;5073904;28;20467;-49
2021/10/25 13:36:48;;;;;;;12.53;9.33;;;12.20;99.20;;;;;;5072320;28;20508;-48
2021/10/25 13:39:16;;;;;;;13.00;8.20;;;12.60;99.40;;;;;;5073525;28;20527;-48
2021/10/25 13:41:43;;;;;;;21.50;9.43;;;12.40;99.30;;;;;;5073468;28;20434;-50
2021/10/25 13:44:12;;;;;;;16.40;9.67;;;12.40;99.30;;;;;;5074143;28;20529;-51
2021/10/25 13:46:39;;;;;;;17.23;9.27;;;12.40;99.30;;;;;;5073993;28;20533;-49
2021/10/25 13:49:07;;;;;;;10.10;8.70;;;12.40;99.30;;;;;;5073271;28;20804;-49
2021/10/25 13:51:34;;;;;;;12.53;9.10;;;12.40;99.30;;;;;;5072368;28;20455;-48
2021/10/25 13:54:01;;;;;;;17.43;8.80;;;12.40;99.20;;;;;;5072508;28;20598;-49
2021/10/25 13:56:28;;;;;;;12.90;10.10;;;12.40;99.30;;;;;;5073445;28;20559;-50
2021/10/25 13:58:56;;;;;;;13.80;10.27;;;12.50;99.30;;;;;;5071920;28;20446;-50
2021/10/25 14:01:25;;;;;;;11.80;9.10;;;12.40;99.30;;;;;;5071345;28;20466;-50
2021/10/25 14:03:55;;;;;;;12.87;10.40;;;12.40;99.30;;;;;;5073294;28;20989;-49
2021/10/25 14:06:23;;;;;;;14.60;8.83;;;12.40;99.30;;;;;;5074137;28;20435;-49
2021/10/25 14:08:50;;;;;;;16.20;9.90;;;12.30;99.30;;;;;;5073168;28;20510;-50
2021/10/25 14:11:18;;;;;;;13.87;9.33;;;12.40;99.50;;;;;;5073601;28;20419;-50
2021/10/25 14:13:55;;;;;;;14.80;9.27;;;12.40;99.50;;;;;;5071546;28;20534;-48
2021/10/25 14:16:33;;;;;;;12.40;8.80;;;12.30;99.60;;;;;;5073211;28;20555;-49
2021/10/25 14:19:02;;;;;;;21.77;12.00;;;12.10;99.60;;;;;;5071635;28;20456;-49
2021/10/25 14:21:34;;;;;;;15.50;9.27;;;12.30;99.70;;;;;;5073363;28;20425;-49